Time;durP1;ratioP1;P1;durP2;ratioP2;P2;SDS_P1;SDS_P2;PMS_P1;PMS_P2;Temp;Humidity;BMP_temperature;BMP_pressure;BME280_temperature;BME280_humidity;BME280_pressure;Samples;Min_cycle;Max_cycle;Signal;HPM_P1;HPM_P2
2022/11/13 00:02:27;;;;;;;;;;;20.10;99.90;;;;;;5043051;28;19921;-72
2022/11/13 00:04:54;;;;;;;;;;;20.00;99.90;;;;;;5044065;28;19956;-71
2022/11/13 00:07:21;;;;;;;;;;;20.00;99.90;;;;;;5050278;28;19913;-68
2022/11/13 00:09:47;;;;;;;;;;;20.00;99.90;;;;;;5052701;28;19909;-67
2022/11/13 00:12:14;;;;;;;;;;;20.00;99.90;;;;;;5051866;28;19999;-68
2022/11/13 00:14:41;;;;;;;;;;;20.10;99.90;;;;;;5052663;28;20410;-69
2022/11/13 00:17:07;;;;;;;;;;;20.20;99.90;;;;;;5051522;28;20364;-68
2022/11/13 00:19:34;;;;;;;;;;;20.20;99.90;;;;;;5051188;28;20363;-69
2022/11/13 00:22:01;;;;;;;;;;;20.00;99.90;;;;;;5050933;28;20383;-67
2022/11/13 00:24:27;;;;;;;;;;;20.00;99.90;;;;;;5052735;28;19952;-67
2022/11/13 00:26:54;;;;;;;;;;;20.00;99.90;;;;;;5051470;28;20418;-67
2022/11/13 00:29:21;;;;;;;;;;;20.00;99.90;;;;;;5052605;28;19995;-67
2022/11/13 00:31:47;;;;;;;;;;;20.00;99.90;;;;;;5050241;28;19997;-67
2022/11/13 00:34:14;;;;;;;;;;;20.00;99.90;;;;;;5052333;28;19909;-68
2022/11/13 00:36:41;;;;;;;;;;;20.00;99.90;;;;;;5050931;28;19919;-67
2022/11/13 00:39:08;;;;;;;;;;;20.10;99.90;;;;;;5052321;28;19992;-68
2022/11/13 00:41:34;;;;;;;;;;;20.10;99.90;;;;;;5051480;28;20387;-68
2022/11/13 00:44:02;;;;;;;;;;;20.00;99.90;;;;;;5052064;28;20267;-69
2022/11/13 00:46:29;;;;;;;;;;;20.10;99.90;;;;;;5055965;28;19948;-68
2022/11/13 00:48:56;;;;;;;;;;;20.10;99.90;;;;;;5054961;28;19920;-68
2022/11/13 00:51:23;;;;;;;;;;;20.10;99.90;;;;;;5055947;28;19932;-67
2022/11/13 00:53:49;;;;;;;;;;;20.20;99.90;;;;;;5055234;28;19919;-70
2022/11/13 00:56:16;;;;;;;;;;;20.20;99.90;;;;;;5053849;28;19951;-68
2022/11/13 00:58:43;;;;;;;;;;;20.20;99.90;;;;;;5055080;28;19960;-69
2022/11/13 01:01:11;;;;;;;;;;;20.30;99.90;;;;;;5055730;28;19959;-68
2022/11/13 01:03:38;;;;;;;;;;;20.30;99.90;;;;;;5054969;28;19913;-68
2022/11/13 01:06:22;;;;;;;;;;;20.40;99.90;;;;;;5054713;28;19916;-69
2022/11/13 01:08:49;;;;;;;;;;;20.40;99.90;;;;;;5035596;28;20012;-68
2022/11/13 01:11:17;;;;;;;;;;;20.40;99.90;;;;;;5035969;28;19965;-70
2022/11/13 01:13:45;;;;;;;;;;;20.50;99.90;;;;;;5055584;28;19955;-69
2022/11/13 01:16:13;;;;;;;;;;;20.40;99.90;;;;;;5054794;28;20356;-70
2022/11/13 01:18:41;;;;;;;;;;;20.40;99.90;;;;;;5035483;28;20278;-71
2022/11/13 01:21:12;;;;;;;;;;;20.40;99.90;;;;;;5042184;28;19913;-68
2022/11/13 01:23:39;;;;;;;;;;;20.40;99.90;;;;;;5054906;28;19912;-67
2022/11/13 01:26:14;;;;;;;;;;;20.50;99.90;;;;;;5054326;28;20477;-70
2022/11/13 01:28:41;;;;;;;;;;;20.40;99.90;;;;;;5055453;28;19909;-68
2022/11/13 01:31:09;;;;;;;;;;;20.30;99.90;;;;;;5053348;28;19912;-69
2022/11/13 01:33:36;;;;;;;;;;;20.30;99.90;;;;;;5054606;28;20473;-67
2022/11/13 01:36:06;;;;;;;;;;;20.20;99.90;;;;;;5055293;28;19954;-72
2022/11/13 01:38:32;;;;;;;;;;;20.20;99.90;;;;;;5054033;28;19917;-68
2022/11/13 01:40:59;;;;;;;;;;;20.20;99.90;;;;;;5054635;28;19909;-69
2022/11/13 01:43:27;;;;;;;;;;;20.40;99.90;;;;;;5054095;28;19951;-67
2022/11/13 01:45:57;;;;;;;;;;;20.50;99.90;;;;;;5054892;28;19915;-74
2022/11/13 01:48:33;;;;;;;;;;;20.60;99.90;;;;;;5053604;28;19917;-74
2022/11/13 01:51:00;;;;;;;;;;;20.60;99.90;;;;;;5054532;28;19954;-69
2022/11/13 01:53:27;;;;;;;;;;;20.60;99.90;;;;;;5054093;28;19967;-72
2022/11/13 01:55:54;;;;;;;;;;;20.50;99.90;;;;;;5053641;28;19920;-73
2022/11/13 01:58:21;;;;;;;;;;;20.50;99.90;;;;;;5054052;28;19939;-68
2022/11/13 02:00:47;;;;;;;;;;;20.70;99.90;;;;;;5053594;28;20571;-71
2022/11/13 02:03:14;;;;;;;;;;;20.80;99.90;;;;;;5053981;28;19913;-72
2022/11/13 02:05:41;;;;;;;;;;;20.80;99.90;;;;;;5054852;28;19935;-74
2022/11/13 02:08:08;;;;;;;;;;;21.00;99.90;;;;;;5053575;28;19939;-76
2022/11/13 02:10:34;;;;;;;;;;;21.10;99.90;;;;;;5054615;28;19909;-75
2022/11/13 02:13:01;;;;;;;;;;;21.10;99.90;;;;;;5052342;28;19913;-75
2022/11/13 02:15:31;;;;;;;;;;;21.20;99.90;;;;;;5054528;28;19937;-74
2022/11/13 02:17:58;;;;;;;;;;;21.40;99.90;;;;;;5053767;28;19920;-75
2022/11/13 02:20:37;;;;;;;;;;;21.50;99.90;;;;;;5054408;28;20410;-74
2022/11/13 02:23:10;;;;;;;;;;;21.50;99.90;;;;;;5053398;28;20315;-75
2022/11/13 02:25:38;;;;;;;;;;;21.60;99.90;;;;;;5054401;28;20067;-73
2022/11/13 02:28:04;;;;;;;;;;;21.60;99.90;;;;;;5052314;28;19959;-72
2022/11/13 02:30:32;;;;;;;;;;;21.70;99.90;;;;;;5052788;28;19913;-73
2022/11/13 02:32:59;;;;;;;;;;;21.80;99.90;;;;;;5053182;28;19936;-72
2022/11/13 02:35:26;;;;;;;;;;;21.80;99.90;;;;;;5053940;28;20360;-70
2022/11/13 02:37:54;;;;;;;;;;;21.90;99.90;;;;;;5053266;28;20005;-72
2022/11/13 02:40:21;;;;;;;;;;;21.90;99.90;;;;;;5053092;28;19913;-69
2022/11/13 02:42:48;;;;;;;;;;;21.90;99.90;;;;;;5052751;28;19915;-70
2022/11/13 02:45:14;;;;;;;;;;;21.90;99.90;;;;;;5053959;28;19913;-73
2022/11/13 02:47:41;;;;;;;;;;;21.90;99.90;;;;;;5053561;28;19999;-69
2022/11/13 02:50:09;;;;;;;;;;;22.00;99.90;;;;;;5053877;28;19916;-72
2022/11/13 02:52:35;;;;;;;;;;;22.10;99.90;;;;;;5051780;28;19913;-74
2022/11/13 02:55:04;;;;;;;;;;;22.20;99.90;;;;;;5053333;28;20391;-72
2022/11/13 02:57:31;;;;;;;;;;;22.30;99.90;;;;;;5052843;28;19916;-70
2022/11/13 02:59:57;;;;;;;;;;;22.40;99.90;;;;;;5053622;28;20390;-74
2022/11/13 03:02:24;;;;;;;;;;;22.50;99.90;;;;;;5051948;28;19913;-73
2022/11/13 03:04:51;;;;;;;;;;;22.60;99.90;;;;;;5053578;28;19913;-75
2022/11/13 03:07:18;;;;;;;;;;;22.70;99.90;;;;;;5051652;28;20318;-75
2022/11/13 03:09:45;;;;;;;;;;;22.70;99.90;;;;;;5053092;28;19952;-74
2022/11/13 03:12:11;;;;;;;;;;;22.60;99.90;;;;;;5053485;28;19916;-73
2022/11/13 03:14:38;;;;;;;;;;;22.80;99.90;;;;;;5052704;28;19916;-73
2022/11/13 03:17:04;;;;;;;;;;;22.90;99.90;;;;;;5053324;28;20007;-72
2022/11/13 03:19:31;;;;;;;;;;;23.00;99.90;;;;;;5053023;28;20400;-72
2022/11/13 03:21:58;;;;;;;;;;;23.10;99.90;;;;;;5052328;28;20008;-73
2022/11/13 03:24:24;;;;;;;;;;;23.20;99.90;;;;;;5053344;28;19909;-74
2022/11/13 03:26:51;;;;;;;;;;;23.30;99.90;;;;;;5052050;28;19969;-73
2022/11/13 03:29:18;;;;;;;;;;;23.40;99.90;;;;;;5053411;28;19908;-71
2022/11/13 03:31:44;;;;;;;;;;;23.50;99.90;;;;;;5050587;28;19916;-72
2022/11/13 03:34:11;;;;;;;;;;;23.60;99.90;;;;;;5053237;28;20313;-70
2022/11/13 03:36:38;;;;;;;;;;;23.60;99.90;;;;;;5052233;28;20007;-73
2022/11/13 03:39:04;;;;;;;;;;;23.60;99.90;;;;;;5052183;28;19925;-70
2022/11/13 03:41:31;;;;;;;;;;;23.50;99.90;;;;;;5052464;28;19943;-73
2022/11/13 03:43:58;;;;;;;;;;;23.50;99.90;;;;;;5053290;28;19916;-72
2022/11/13 03:46:24;;;;;;;;;;;23.50;99.90;;;;;;5051287;28;20006;-73
2022/11/13 03:48:51;;;;;;;;;;;23.50;99.90;;;;;;5052136;28;19927;-74
2022/11/13 03:51:18;;;;;;;;;;;23.50;99.90;;;;;;5053211;28;20007;-73
2022/11/13 03:53:44;;;;;;;;;;;23.50;99.90;;;;;;5052468;28;19935;-72
2022/11/13 03:56:11;;;;;;;;;;;23.60;99.90;;;;;;5052842;28;20380;-73
2022/11/13 03:58:38;;;;;;;;;;;23.60;99.90;;;;;;5052301;28;19921;-73
2022/11/13 04:01:04;;;;;;;;;;;23.70;99.90;;;;;;5051666;28;19916;-75
2022/11/13 04:03:31;;;;;;;;;;;23.70;99.90;;;;;;5052026;28;20352;-74
2022/11/13 04:05:59;;;;;;;;;;;23.80;99.90;;;;;;5053005;28;20426;-73
2022/11/13 04:08:25;;;;;;;;;;;23.90;99.90;;;;;;5052199;28;20352;-74
2022/11/13 04:10:52;;;;;;;;;;;23.90;99.90;;;;;;5052562;28;19913;-75
2022/11/13 04:13:19;;;;;;;;;;;23.90;99.90;;;;;;5051040;28;19924;-74
2022/11/13 04:15:46;;;;;;;;;;;23.80;99.90;;;;;;5052699;28;19915;-74
2022/11/13 04:18:13;;;;;;;;;;;23.80;99.90;;;;;;5052145;28;19917;-74
2022/11/13 04:20:39;;;;;;;;;;;23.60;99.90;;;;;;5056263;28;19917;-75
2022/11/13 04:23:11;;;;;;;;;;;23.60;99.90;;;;;;5053904;28;19999;-74
2022/11/13 04:25:37;;;;;;;;;;;23.50;99.90;;;;;;5056547;28;19909;-74
2022/11/13 04:28:04;;;;;;;;;;;23.50;99.90;;;;;;5054633;28;19959;-75
2022/11/13 04:30:31;;;;;;;;;;;23.40;99.90;;;;;;5055976;28;19913;-75
2022/11/13 04:32:57;;;;;;;;;;;23.30;99.90;;;;;;5054903;28;19982;-74
2022/11/13 04:35:24;;;;;;;;;;;23.30;99.90;;;;;;5056610;28;20382;-74
2022/11/13 04:37:51;;;;;;;;;;;23.30;99.90;;;;;;5054727;28;19912;-74
2022/11/13 04:40:17;;;;;;;;;;;23.30;99.90;;;;;;5055732;28;19952;-74
2022/11/13 04:42:50;;;;;;;;;;;23.30;99.90;;;;;;5056128;28;19909;-73
2022/11/13 04:45:18;;;;;;;;;;;23.40;99.90;;;;;;5056364;28;19909;-74
2022/11/13 04:47:45;;;;;;;;;;;23.30;99.90;;;;;;5056255;28;20275;-74
2022/11/13 04:50:12;;;;;;;;;;;23.30;99.90;;;;;;5056222;28;20360;-74
2022/11/13 04:52:38;;;;;;;;;;;23.30;99.90;;;;;;5055235;28;19962;-73
2022/11/13 04:55:05;;;;;;;;;;;23.30;99.90;;;;;;5055584;28;19925;-74
2022/11/13 04:57:32;;;;;;;;;;;23.40;99.90;;;;;;5055921;28;19909;-73
2022/11/13 04:59:59;;;;;;;;;;;23.40;99.90;;;;;;5055842;28;19917;-73
2022/11/13 05:02:25;;;;;;;;;;;23.40;99.90;;;;;;5055966;28;20359;-73
2022/11/13 05:04:52;;;;;;;;;;;23.50;99.90;;;;;;5055747;28;19913;-71
2022/11/13 05:07:19;;;;;;;;;;;23.50;99.90;;;;;;5053586;28;19963;-71
2022/11/13 05:09:45;;;;;;;;;;;23.50;99.90;;;;;;5055011;28;19913;-71
2022/11/13 05:12:12;;;;;;;;;;;23.40;99.90;;;;;;5055757;28;19928;-69
2022/11/13 05:14:39;;;;;;;;;;;23.50;99.90;;;;;;5055664;28;20244;-71
2022/11/13 05:17:06;;;;;;;;;;;23.40;99.90;;;;;;5055396;28;19915;-72
2022/11/13 05:19:33;;;;;;;;;;;23.50;99.90;;;;;;5055636;28;19917;-72
2022/11/13 05:22:00;;;;;;;;;;;23.50;99.90;;;;;;5054696;28;20299;-70
2022/11/13 05:24:27;;;;;;;;;;;23.50;99.90;;;;;;5055520;28;19913;-73
2022/11/13 05:26:53;;;;;;;;;;;23.50;99.90;;;;;;5055135;28;19916;-72
2022/11/13 05:29:20;;;;;;;;;;;23.50;99.90;;;;;;5055347;28;20004;-72
2022/11/13 05:31:47;;;;;;;;;;;23.50;99.90;;;;;;5054270;28;19915;-71
2022/11/13 05:34:14;;;;;;;;;;;23.50;99.90;;;;;;5055343;28;20571;-72
2022/11/13 05:36:41;;;;;;;;;;;23.40;99.90;;;;;;5053460;28;19913;-73
2022/11/13 05:39:07;;;;;;;;;;;23.50;99.90;;;;;;5054250;28;19921;-72
2022/11/13 05:41:34;;;;;;;;;;;23.50;99.90;;;;;;5055081;28;19924;-72
2022/11/13 05:44:01;;;;;;;;;;;23.40;99.90;;;;;;5055221;28;19948;-70
2022/11/13 05:46:29;;;;;;;;;;;23.40;99.90;;;;;;5055044;28;19909;-70
2022/11/13 05:48:56;;;;;;;;;;;23.40;99.90;;;;;;5054877;28;20003;-73
2022/11/13 05:51:25;;;;;;;;;;;23.40;99.90;;;;;;5053680;28;19913;-71
2022/11/13 05:53:52;;;;;;;;;;;23.40;99.90;;;;;;5055052;28;19909;-70
2022/11/13 05:56:20;;;;;;;;;;;23.40;99.90;;;;;;5054662;28;19920;-72
2022/11/13 05:58:47;;;;;;;;;;;23.40;99.90;;;;;;5054665;28;19928;-73
2022/11/13 06:01:15;;;;;;;;;;;23.40;99.90;;;;;;5054847;28;19909;-75
2022/11/13 06:03:42;;;;;;;;;;;23.30;99.90;;;;;;5054708;28;19974;-73
2022/11/13 06:06:10;;;;;;;;;;;23.40;99.90;;;;;;5053877;28;19913;-72
2022/11/13 06:08:37;;;;;;;;;;;23.40;99.90;;;;;;5054660;28;19950;-72
2022/11/13 06:11:06;;;;;;;;;;;23.40;99.90;;;;;;5054155;28;19966;-72
2022/11/13 06:13:33;;;;;;;;;;;23.40;99.90;;;;;;5054470;28;19934;-73
2022/11/13 06:16:01;;;;;;;;;;;23.40;99.90;;;;;;5054374;28;20368;-73
2022/11/13 06:18:28;;;;;;;;;;;23.40;99.90;;;;;;5036624;28;19938;-73
2022/11/13 06:20:54;;;;;;;;;;;23.40;99.90;;;;;;5053072;28;19913;-73
2022/11/13 06:23:21;;;;;;;;;;;23.40;99.90;;;;;;5054358;28;19909;-73
2022/11/13 06:25:48;;;;;;;;;;;23.40;99.90;;;;;;5054109;28;20332;-72
2022/11/13 06:28:14;;;;;;;;;;;23.30;99.90;;;;;;5054140;28;19908;-73
2022/11/13 06:30:41;;;;;;;;;;;23.30;99.90;;;;;;5054195;28;19990;-73
2022/11/13 06:33:08;;;;;;;;;;;23.30;99.90;;;;;;5053796;28;19909;-72
2022/11/13 06:35:34;;;;;;;;;;;23.30;99.90;;;;;;5052694;28;20000;-73
2022/11/13 06:38:01;;;;;;;;;;;23.20;99.90;;;;;;5052934;28;19913;-71
2022/11/13 06:40:28;;;;;;;;;;;23.20;99.90;;;;;;5053877;28;19967;-72
2022/11/13 06:42:54;;;;;;;;;;;23.20;99.90;;;;;;5053600;28;19915;-73
2022/11/13 06:45:21;;;;;;;;;;;23.10;99.90;;;;;;5053965;28;19916;-73
2022/11/13 06:47:48;;;;;;;;;;;23.10;99.90;;;;;;5053671;28;19995;-72
2022/11/13 06:50:14;;;;;;;;;;;23.20;99.90;;;;;;5053213;28;20396;-73
2022/11/13 06:52:41;;;;;;;;;;;23.10;99.90;;;;;;5053728;28;19923;-73
2022/11/13 06:55:08;;;;;;;;;;;23.10;99.90;;;;;;5053357;28;19929;-72
2022/11/13 06:57:34;;;;;;;;;;;23.10;99.90;;;;;;5053796;28;20355;-69
2022/11/13 07:00:01;;;;;;;;;;;23.10;99.90;;;;;;5053681;28;19917;-72
2022/11/13 07:02:27;;;;;;;;;;;23.00;99.90;;;;;;5053631;28;19998;-73
2022/11/13 07:04:54;;;;;;;;;;;23.00;99.90;;;;;;5052538;28;19920;-72
2022/11/13 07:07:21;;;;;;;;;;;23.00;99.90;;;;;;5052780;28;19908;-72
2022/11/13 07:09:47;;;;;;;;;;;23.00;99.90;;;;;;5053551;28;20046;-71
2022/11/13 07:12:14;;;;;;;;;;;23.00;99.90;;;;;;5053522;28;19916;-71
2022/11/13 07:14:41;;;;;;;;;;;23.00;99.90;;;;;;5053454;28;19912;-74
2022/11/13 07:17:07;;;;;;;;;;;22.90;99.90;;;;;;5053419;28;19912;-72
2022/11/13 07:19:34;;;;;;;;;;;22.90;99.90;;;;;;5052707;28;20011;-70
2022/11/13 07:22:01;;;;;;;;;;;22.90;99.90;;;;;;5053557;28;19916;-73
2022/11/13 07:24:27;;;;;;;;;;;22.90;99.90;;;;;;5053284;28;19916;-74
2022/11/13 07:26:54;;;;;;;;;;;22.90;99.90;;;;;;5053218;28;19909;-72
2022/11/13 07:29:21;;;;;;;;;;;22.90;99.90;;;;;;5053348;28;19909;-72
2022/11/13 07:31:48;;;;;;;;;;;22.80;99.90;;;;;;5053427;28;19999;-73
2022/11/13 07:34:14;;;;;;;;;;;22.80;99.90;;;;;;5052366;28;19913;-73
2022/11/13 07:36:41;;;;;;;;;;;22.80;99.90;;;;;;5052372;28;20379;-73
2022/11/13 07:39:08;;;;;;;;;;;22.80;99.90;;;;;;5052851;28;19924;-73
2022/11/13 07:41:34;;;;;;;;;;;22.80;99.90;;;;;;5053280;28;19915;-74
2022/11/13 07:44:01;;;;;;;;;;;22.70;99.90;;;;;;5053062;28;19916;-72
2022/11/13 07:46:28;;;;;;;;;;;22.70;99.90;;;;;;5051908;28;19916;-73
2022/11/13 07:48:54;;;;;;;;;;;22.70;99.90;;;;;;5051942;28;19913;-72
2022/11/13 07:51:21;;;;;;;;;;;22.70;99.90;;;;;;5053010;28;19944;-72
2022/11/13 07:53:48;;;;;;;;;;;22.70;99.90;;;;;;5053077;28;19915;-73
2022/11/13 07:56:14;;;;;;;;;;;22.70;99.90;;;;;;5056339;28;19927;-72
2022/11/13 07:58:41;;;;;;;;;;;22.70;99.90;;;;;;5056794;28;20007;-72
2022/11/13 08:01:07;;;;;;;;;;;22.60;99.90;;;;;;5056955;28;19963;-72
2022/11/13 08:03:34;;;;;;;;;;;22.60;99.90;;;;;;5055918;28;19920;-73
2022/11/13 08:06:02;;;;;;;;;;;22.50;99.90;;;;;;5057005;28;20275;-71
2022/11/13 08:08:29;;;;;;;;;;;22.50;99.90;;;;;;5057022;28;19909;-73
2022/11/13 08:10:56;;;;;;;;;;;22.50;99.90;;;;;;5052161;28;19912;-71
2022/11/13 08:13:22;;;;;;;;;;;22.40;99.90;;;;;;5048386;28;19913;-73
2022/11/13 08:15:49;;;;;;;;;;;22.50;99.90;;;;;;5048110;28;20008;-73
2022/11/13 08:18:16;;;;;;;;;;;22.40;99.90;;;;;;5047628;28;19928;-72
2022/11/13 08:20:42;;;;;;;;;;;22.50;99.90;;;;;;5048158;28;19928;-69
2022/11/13 08:23:09;;;;;;;;;;;22.50;99.90;;;;;;5047924;28;19913;-70
2022/11/13 08:25:36;;;;;;;;;;;22.50;99.90;;;;;;5047237;28;20424;-72
2022/11/13 08:28:02;;;;;;;;;;;22.50;99.90;;;;;;5047947;28;19917;-72
2022/11/13 08:30:29;;;;;;;;;;;22.40;99.90;;;;;;5047939;28;19916;-73
2022/11/13 08:32:56;;;;;;;;;;;22.30;99.90;;;;;;5045393;28;20950;-73
2022/11/13 08:35:24;;;;;;;;;;;22.20;99.90;;;;;;5047731;28;20621;-73
2022/11/13 08:37:51;;;;;;;;;;;22.10;99.90;;;;;;5047502;28;19913;-72
2022/11/13 08:40:17;;;;;;;;;;;22.00;99.90;;;;;;5047551;28;19951;-70
2022/11/13 08:42:44;;;;;;;;;;;22.00;99.90;;;;;;5047682;28;19912;-72
2022/11/13 08:45:11;;;;;;;;;;;21.90;99.90;;;;;;5047707;28;20034;-71
2022/11/13 08:47:38;;;;;;;;;;;21.80;99.90;;;;;;5046758;28;20004;-71
2022/11/13 08:50:05;;;;;;;;;;;21.70;99.90;;;;;;5047334;28;19921;-72
2022/11/13 08:52:32;;;;;;;;;;;21.60;99.90;;;;;;5047271;28;20019;-72
2022/11/13 08:54:58;;;;;;;;;;;21.50;99.90;;;;;;5047029;28;19923;-72
2022/11/13 08:57:25;;;;;;;;;;;21.30;99.90;;;;;;5047338;28;20441;-73
2022/11/13 08:59:52;;;;;;;;;;;21.30;99.90;;;;;;5047176;28;19931;-72
2022/11/13 09:02:18;;;;;;;;;;;21.20;99.90;;;;;;5046483;28;19920;-68
2022/11/13 09:04:47;;;;;;;;;;;21.10;99.90;;;;;;5046587;28;19919;-65
2022/11/13 09:07:13;;;;;;;;;;;21.00;99.90;;;;;;5047025;28;20680;-71
2022/11/13 09:09:40;;;;;;;;;;;21.00;99.90;;;;;;5047260;28;19912;-72
2022/11/13 09:12:07;;;;;;;;;;;20.90;99.90;;;;;;5047325;28;19913;-72
2022/11/13 09:14:34;;;;;;;;;;;20.90;99.90;;;;;;5047181;28;19917;-71
2022/11/13 09:17:01;;;;;;;;;;;20.90;99.90;;;;;;5044265;28;20314;-73
2022/11/13 09:19:28;;;;;;;;;;;20.80;99.90;;;;;;5046612;28;19978;-71
2022/11/13 09:21:54;;;;;;;;;;;20.80;99.90;;;;;;5046688;28;19913;-70
2022/11/13 09:24:21;;;;;;;;;;;20.80;99.90;;;;;;5046858;28;19924;-72
2022/11/13 09:26:48;;;;;;;;;;;20.70;99.90;;;;;;5046523;28;19963;-71
2022/11/13 09:29:14;;;;;;;;;;;20.70;99.90;;;;;;5046332;28;20653;-70
2022/11/13 09:31:41;;;;;;;;;;;20.70;99.90;;;;;;5045952;28;20310;-70
2022/11/13 09:34:08;;;;;;;;;;;20.70;99.90;;;;;;5045288;28;19917;-71
2022/11/13 09:36:35;;;;;;;;;;;20.70;99.90;;;;;;5045838;28;19917;-71
2022/11/13 09:39:02;;;;;;;;;;;20.70;99.90;;;;;;5045062;28;19978;-71
2022/11/13 09:41:31;;;;;;;;;;;20.70;99.90;;;;;;5046455;28;19956;-72
2022/11/13 09:44:00;;;;;;;;;;;20.70;99.90;;;;;;5046276;28;19939;-72
2022/11/13 09:46:33;;;;;;;;;;;20.70;99.90;;;;;;5046531;28;19913;-73
2022/11/13 09:49:03;;;;;;;;;;;20.70;99.90;;;;;;5046207;28;20008;-70
2022/11/13 09:51:32;;;;;;;;;;;20.70;99.90;;;;;;5046305;28;19913;-69
2022/11/13 09:54:02;;;;;;;;;;;20.60;99.90;;;;;;5045265;28;20322;-71
2022/11/13 09:56:33;;;;;;;;;;;20.60;99.90;;;;;;5045257;28;19951;-72
2022/11/13 09:59:21;;;;;;;;;;;20.60;99.90;;;;;;5045660;28;20007;-66
2022/11/13 10:01:50;;;;;;;;;;;20.60;99.90;;;;;;5046242;28;19967;-72
2022/11/13 10:04:21;;;;;;;;;;;20.60;99.90;;;;;;5046059;28;20270;-72
2022/11/13 10:06:54;;;;;;;;;;;20.60;99.90;;;;;;5045865;28;19913;-68
2022/11/13 10:09:22;;;;;;;;;;;20.50;99.90;;;;;;5044856;28;19923;-72
2022/11/13 10:11:54;;;;;;;;;;;20.50;99.90;;;;;;5045760;28;20291;-70
2022/11/13 10:14:24;;;;;;;;;;;20.50;99.90;;;;;;5045820;28;19919;-72
2022/11/13 10:16:54;;;;;;;;;;;20.50;99.90;;;;;;5045172;28;19919;-69
2022/11/13 10:19:24;;;;;;;;;;;20.50;99.90;;;;;;5045620;28;19920;-71
2022/11/13 10:22:14;;;;;;;;;;;20.40;99.90;;;;;;5044987;28;19920;-72
2022/11/13 10:24:42;;;;;;;;;;;20.40;99.90;;;;;;5032794;28;19923;-70
2022/11/13 10:27:13;;;;;;;;;;;20.40;99.90;;;;;;5044767;28;19916;-72
2022/11/13 10:29:40;;;;;;;;;;;20.30;99.90;;;;;;5045477;28;19912;-69
2022/11/13 10:32:15;;;;;;;;;;;20.40;99.90;;;;;;5045365;28;20406;-72
2022/11/13 10:34:43;;;;;;;;;;;20.30;99.90;;;;;;5044970;28;19920;-71
2022/11/13 10:37:28;;;;;;;;;;;20.40;99.90;;;;;;5044527;28;19916;-68
2022/11/13 10:39:56;;;;;;;;;;;20.40;99.90;;;;;;5045205;28;19925;-69
2022/11/13 10:42:26;;;;;;;;;;;20.40;99.90;;;;;;5045257;28;19920;-71
2022/11/13 10:44:58;;;;;;;;;;;20.40;99.90;;;;;;5045023;28;19917;-67
2022/11/13 10:47:26;;;;;;;;;;;20.40;99.90;;;;;;5044792;28;20589;-71
2022/11/13 10:49:54;;;;;;;;;;;20.40;99.90;;;;;;5045025;28;20047;-70
2022/11/13 10:52:23;;;;;;;;;;;20.40;99.90;;;;;;5044392;28;19916;-66
2022/11/13 10:54:50;;;;;;;;;;;20.40;99.90;;;;;;5044754;28;19920;-70
2022/11/13 10:57:24;;;;;;;;;;;20.40;99.90;;;;;;5045493;28;19965;-71
2022/11/13 10:59:50;;;;;;;;;;;20.40;99.90;;;;;;5044843;28;19921;-73
2022/11/13 11:02:18;;;;;;;;;;;20.40;99.90;;;;;;5044685;28;20422;-70
2022/11/13 11:04:45;;;;;;;;;;;20.40;99.90;;;;;;5044878;28;19921;-71
2022/11/13 11:07:14;;;;;;;;;;;20.40;99.90;;;;;;5044273;28;19920;-76
2022/11/13 11:09:42;;;;;;;;;;;20.40;99.90;;;;;;5044876;28;20284;-65
2022/11/13 11:12:15;;;;;;;;;;;20.40;99.90;;;;;;5044694;28;20418;-72
2022/11/13 11:14:51;;;;;;;;;;;20.40;99.90;;;;;;5044761;28;19920;-69
2022/11/13 11:17:18;;;;;;;;;;;20.40;99.90;;;;;;5044976;28;19916;-66
2022/11/13 11:19:49;;;;;;;;;;;20.40;99.90;;;;;;5044974;28;20275;-70
2022/11/13 11:22:18;;;;;;;;;;;20.40;99.90;;;;;;5044111;28;19917;-68
2022/11/13 11:24:50;;;;;;;;;;;20.40;99.90;;;;;;5042867;28;20373;-66
2022/11/13 11:27:46;;;;;;;;;;;20.40;99.90;;;;;;5044708;28;19942;-71
2022/11/13 11:30:20;;;;;;;;;;;20.40;99.90;;;;;;5026509;28;20266;-69
2022/11/13 11:32:47;;;;;;;;;;;20.40;99.90;;;;;;5044445;28;19912;-72
2022/11/13 11:35:47;;;;;;;;;;;20.50;99.90;;;;;;5044523;28;19943;-73
2022/11/13 11:38:13;;;;;;;;;;;20.50;99.90;;;;;;4998544;28;19917;-68
2022/11/13 11:40:45;;;;;;;;;;;20.50;99.90;;;;;;5044145;28;20101;-69
2022/11/13 11:43:12;;;;;;;;;;;20.50;99.90;;;;;;5044569;28;19923;-69
2022/11/13 11:45:43;;;;;;;;;;;20.60;99.90;;;;;;5044521;28;19974;-67
2022/11/13 11:48:12;;;;;;;;;;;20.50;99.90;;;;;;5044760;28;19912;-70
2022/11/13 11:50:39;;;;;;;;;;;20.50;99.90;;;;;;5044669;28;19917;-70
2022/11/13 11:53:34;;;;;;;;;;;20.50;99.90;;;;;;5043094;28;20577;-68
2022/11/13 11:56:12;;;;;;;;;;;20.50;99.90;;;;;;5035145;28;19925;-70
2022/11/13 11:58:56;;;;;;;;;;;20.40;99.90;;;;;;5044294;28;20398;-69
2022/11/13 12:01:23;;;;;;;;;;;20.40;99.90;;;;;;5044415;28;19917;-68
2022/11/13 12:04:02;;;;;;;;;;;20.40;99.90;;;;;;5044546;28;19913;-70
2022/11/13 12:06:36;;;;;;;;;;;20.40;99.90;;;;;;5043356;28;19924;-66
2022/11/13 12:09:23;;;;;;;;;;;20.40;99.90;;;;;;5044160;28;19917;-69
2022/11/13 12:11:50;;;;;;;;;;;20.40;99.90;;;;;;5044078;28;20626;-71
2022/11/13 12:14:23;;;;;;;;;;;20.40;99.90;;;;;;5044453;28;19919;-71
2022/11/13 12:17:09;;;;;;;;;;;20.40;99.90;;;;;;5044044;28;19962;-72
2022/11/13 12:19:51;;;;;;;;;;;20.30;99.90;;;;;;5028969;28;19921;-72
2022/11/13 12:22:42;;;;;;;;;;;20.30;99.90;;;;;;5043372;28;20710;-72
2022/11/13 12:25:09;;;;;;;;;;;20.30;99.90;;;;;;5050062;28;19920;-69
2022/11/13 12:27:44;;;;;;;;;;;20.30;99.90;;;;;;5052862;28;19913;-72
2022/11/13 12:30:19;;;;;;;;;;;20.30;99.90;;;;;;5052856;28;19909;-72
2022/11/13 12:32:57;;;;;;;;;;;20.30;99.90;;;;;;5052466;28;19912;-72
2022/11/13 12:35:25;;;;;;;;;;;20.30;99.90;;;;;;5051999;28;19909;-73
2022/11/13 12:37:51;;;;;;;;;;;20.30;99.90;;;;;;5052607;28;19915;-71
2022/11/13 12:40:21;;;;;;;;;;;20.20;99.90;;;;;;5053545;28;20431;-73
2022/11/13 12:42:50;;;;;;;;;;;20.20;99.90;;;;;;5056264;28;20379;-71
2022/11/13 12:45:23;;;;;;;;;;;20.20;99.90;;;;;;5056348;28;19943;-71
2022/11/13 12:47:51;;;;;;;;;;;20.20;99.90;;;;;;5056328;28;19992;-73
2022/11/13 12:50:28;;;;;;;;;;;20.20;99.90;;;;;;5055245;28;19921;-72
2022/11/13 12:53:05;;;;;;;;;;;20.20;99.90;;;;;;5055307;28;19967;-73
2022/11/13 12:55:35;;;;;;;;;;;20.20;99.90;;;;;;5056026;28;20019;-72
2022/11/13 12:58:24;;;;;;;;;;;20.20;99.90;;;;;;5056336;28;20482;-72
2022/11/13 13:01:26;;;;;;;;;;;20.20;99.90;;;;;;5045357;28;19924;-72
2022/11/13 13:04:02;;;;;;;;;;;20.30;99.90;;;;;;4975091;28;19914;-69
2022/11/13 13:06:29;;;;;;;;;;;20.30;99.90;;;;;;5043916;28;19920;-71
2022/11/13 13:09:13;;;;;;;;;;;20.30;99.90;;;;;;5055608;28;19915;-69
2022/11/13 13:11:43;;;;;;;;;;;20.30;99.90;;;;;;5055820;28;19912;-67
2022/11/13 13:14:16;;;;;;;;;;;20.20;99.90;;;;;;5055882;28;20419;-69
2022/11/13 13:16:42;;;;;;;;;;;20.20;99.90;;;;;;5055719;28;19917;-66
2022/11/13 13:19:29;;;;;;;;;;;20.20;99.90;;;;;;5055299;28;19959;-67
2022/11/13 13:21:56;;;;;;;;;;;20.20;99.90;;;;;;5055686;28;19913;-67
2022/11/13 13:24:33;;;;;;;;;;;20.20;99.90;;;;;;5054307;28;19964;-67
2022/11/13 13:27:00;;;;;;;;;;;20.20;99.90;;;;;;5055430;28;19909;-66
2022/11/13 13:29:28;;;;;;;;;;;20.30;99.90;;;;;;5055453;28;19955;-68
2022/11/13 13:31:55;;;;;;;;;;;20.20;99.90;;;;;;5055468;28;20019;-68
2022/11/13 13:34:30;;;;;;;;;;;20.10;99.90;;;;;;5054637;28;19909;-66
2022/11/13 13:37:15;;;;;;;;;;;20.10;99.90;;;;;;5055213;28;19935;-67
2022/11/13 13:39:51;;;;;;;;;;;20.10;99.90;;;;;;5055258;28;19966;-68
2022/11/13 13:42:17;;;;;;;;;;;20.10;99.90;;;;;;5055151;28;19909;-68
2022/11/13 13:45:08;;;;;;;;;;;20.10;99.90;;;;;;5055227;28;20295;-66
2022/11/13 13:47:39;;;;;;;;;;;20.10;99.90;;;;;;5055170;28;19948;-72
2022/11/13 13:50:26;;;;;;;;;;;20.10;99.90;;;;;;5054134;28;19913;-69
2022/11/13 13:52:53;;;;;;;;;;;20.00;99.90;;;;;;5053375;28;19924;-71
2022/11/13 13:55:33;;;;;;;;;;;20.10;99.90;;;;;;5053627;28;19943;-70
2022/11/13 13:58:01;;;;;;;;;;;20.00;99.90;;;;;;5055051;28;19909;-67
2022/11/13 14:00:28;;;;;;;;;;;20.00;99.90;;;;;;5054881;28;19921;-68
2022/11/13 14:02:54;;;;;;;;;;;20.00;99.90;;;;;;5054704;28;20363;-66
2022/11/13 14:05:24;;;;;;;;;;;20.00;99.90;;;;;;5054050;28;20017;-65
2022/11/13 14:07:51;;;;;;;;;;;20.00;99.90;;;;;;5054849;28;19916;-66
2022/11/13 14:10:19;;;;;;;;;;;20.00;99.90;;;;;;5054770;28;19916;-67
2022/11/13 14:12:46;;;;;;;;;;;19.90;99.90;;;;;;5054562;28;19909;-67
2022/11/13 14:15:24;;;;;;;;;;;19.90;99.90;;;;;;5054618;28;20299;-71
2022/11/13 14:17:51;;;;;;;;;;;19.90;99.90;;;;;;5054599;28;20007;-72
2022/11/13 14:20:18;;;;;;;;;;;19.90;99.90;;;;;;5052983;28;20019;-65
2022/11/13 14:22:46;;;;;;;;;;;19.90;99.90;;;;;;5054434;28;19909;-69
2022/11/13 14:25:20;;;;;;;;;;;19.90;99.90;;;;;;5054418;28;19974;-66
2022/11/13 14:27:46;;;;;;;;;;;19.80;99.90;;;;;;5054434;28;19908;-68